Time;durP1;ratioP1;P1;durP2;ratioP2;P2;SDS_P1;SDS_P2;PMS_P1;PMS_P2;Temp;Humidity;BMP_temperature;BMP_pressure;BME280_temperature;BME280_humidity;BME280_pressure;Samples;Min_cycle;Max_cycle;Signal;HPM_P1;HPM_P2
2022/10/12 00:01:11;;;;;;;;;;;;;;;;;;10402499;28;20384;-63
2022/10/12 00:06:13;;;;;;;;;;;;;;;;;;10421244;28;19925;-62
2022/10/12 00:11:15;;;;;;;;;;;;;;;;;;10422626;28;19925;-63
2022/10/12 00:16:17;;;;;;;;;;;;;;;;;;10421787;28;20434;-63
2022/10/12 00:21:19;;;;;;;;;;;;;;;;;;10420197;28;19929;-62
2022/10/12 00:26:21;;;;;;;;;;;;;;;;;;10404602;28;19925;-62
2022/10/12 00:31:23;;;;;;;;;;;;;;;;;;10421273;28;20388;-63
2022/10/12 00:36:25;;;;;;;;;;;;;;;;;;10420606;28;19979;-63
2022/10/12 00:41:27;;;;;;;;;;;;;;;;;;10419164;28;19925;-62
2022/10/12 00:46:29;;;;;;;;;;;;;;;;;;10420875;28;19975;-63
2022/10/12 00:51:32;;;;;;;;;;;;;;;;;;10421090;28;19975;-62
2022/10/12 00:56:34;;;;;;;;;;;;;;;;;;10420109;28;19932;-63
2022/10/12 01:01:36;;;;;;;;;;;;;;;;;;10417333;28;20372;-62
2022/10/12 01:06:38;;;;;;;;;;;;;;;;;;10420476;28;19925;-62
2022/10/12 01:11:40;;;;;;;;;;;;;;;;;;10419626;28;20335;-63
2022/10/12 01:16:42;;;;;;;;;;;;;;;;;;10419126;28;19929;-62
2022/10/12 01:21:44;;;;;;;;;;;;;;;;;;10418127;28;19983;-62
2022/10/12 01:26:46;;;;;;;;;;;;;;;;;;10418049;28;20001;-63
2022/10/12 01:31:48;;;;;;;;;;;;;;;;;;10419571;28;19925;-63
2022/10/12 01:36:50;;;;;;;;;;;;;;;;;;10417676;28;19925;-63
2022/10/12 01:41:52;;;;;;;;;;;;;;;;;;10377600;28;19987;-62
2022/10/12 01:46:54;;;;;;;;;;;;;;;;;;10391559;28;19936;-62
2022/10/12 01:51:56;;;;;;;;;;;;;;;;;;10417383;28;19979;-63
2022/10/12 01:56:58;;;;;;;;;;;;;;;;;;10416054;28;19929;-62
2022/10/12 02:02:00;;;;;;;;;;;;;;;;;;10417698;28;19987;-63
2022/10/12 02:07:02;;;;;;;;;;;;;;;;;;10416298;28;19925;-63
2022/10/12 02:12:04;;;;;;;;;;;;;;;;;;10417835;28;19929;-62
2022/10/12 02:17:06;;;;;;;;;;;;;;;;;;10417472;28;19925;-62
2022/10/12 02:22:08;;;;;;;;;;;;;;;;;;10416719;28;19926;-63
2022/10/12 02:27:11;;;;;;;;;;;;;;;;;;10416004;28;20289;-63
2022/10/12 02:32:13;;;;;;;;;;;;;;;;;;10416452;28;20445;-63
2022/10/12 02:37:15;;;;;;;;;;;;;;;;;;10415375;28;20284;-63
2022/10/12 02:42:17;;;;;;;;;;;;;;;;;;10415724;28;19929;-62
2022/10/12 02:47:19;;;;;;;;;;;;;;;;;;10416271;28;19926;-62
2022/10/12 02:52:21;;;;;;;;;;;;;;;;;;10415840;28;19925;-62
2022/10/12 02:57:23;;;;;;;;;;;;;;;;;;10413843;28;19987;-62
2022/10/12 03:02:25;;;;;;;;;;;;;;;;;;10415335;28;19929;-62
2022/10/12 03:07:27;;;;;;;;;;;;;;;;;;10415247;28;19925;-62
2022/10/12 03:12:29;;;;;;;;;;;;;;;;;;10416060;28;19925;-62
2022/10/12 03:17:31;;;;;;;;;;;;;;;;;;10415267;28;19975;-62
2022/10/12 03:22:33;;;;;;;;;;;;;;;;;;10417682;28;19929;-62
2022/10/12 03:27:35;;;;;;;;;;;;;;;;;;10423436;28;19934;-62
2022/10/12 03:32:38;;;;;;;;;;;;;;;;;;10424181;28;19925;-62
2022/10/12 03:37:40;;;;;;;;;;;;;;;;;;10422090;28;20020;-63
2022/10/12 03:42:42;;;;;;;;;;;;;;;;;;10422770;28;19929;-62
2022/10/12 03:47:44;;;;;;;;;;;;;;;;;;10421761;28;20384;-62
2022/10/12 03:52:46;;;;;;;;;;;;;;;;;;10423395;28;20048;-62
2022/10/12 03:57:49;;;;;;;;;;;;;;;;;;10423130;28;19951;-62
2022/10/12 04:02:51;;;;;;;;;;;;;;;;;;10421952;28;19925;-62
2022/10/12 04:07:53;;;;;;;;;;;;;;;;;;10421246;28;19986;-62
2022/10/12 04:12:55;;;;;;;;;;;;;;;;;;10421657;28;19929;-62
2022/10/12 04:17:57;;;;;;;;;;;;;;;;;;10421855;28;19929;-62
2022/10/12 04:22:59;;;;;;;;;;;;;;;;;;10421317;28;19925;-63
2022/10/12 04:28:01;;;;;;;;;;;;;;;;;;10420575;28;20430;-63
2022/10/12 04:33:03;;;;;;;;;;;;;;;;;;10420328;28;19979;-63
2022/10/12 04:38:05;;;;;;;;;;;;;;;;;;10421374;28;19929;-63
2022/10/12 04:43:07;;;;;;;;;;;;;;;;;;10419474;28;20335;-62
2022/10/12 04:48:09;;;;;;;;;;;;;;;;;;10418638;28;20005;-62
2022/10/12 04:53:11;;;;;;;;;;;;;;;;;;10420829;28;19972;-63
2022/10/12 04:58:13;;;;;;;;;;;;;;;;;;10420049;28;19933;-62
2022/10/12 05:03:15;;;;;;;;;;;;;;;;;;10419566;28;19929;-62
2022/10/12 05:08:17;;;;;;;;;;;;;;;;;;10418843;28;19979;-62
2022/10/12 05:13:19;;;;;;;;;;;;;;;;;;10418854;28;19925;-62
2022/10/12 05:18:21;;;;;;;;;;;;;;;;;;10420120;28;19952;-63
2022/10/12 05:23:23;;;;;;;;;;;;;;;;;;10418477;28;20007;-62
2022/10/12 05:28:25;;;;;;;;;;;;;;;;;;10419892;28;19983;-62
2022/10/12 05:33:27;;;;;;;;;;;;;;;;;;10418845;28;19947;-62
2022/10/12 05:38:29;;;;;;;;;;;;;;;;;;10417723;28;19925;-62
2022/10/12 05:43:31;;;;;;;;;;;;;;;;;;10416781;28;20347;-62
2022/10/12 05:48:34;;;;;;;;;;;;;;;;;;10416878;28;19929;-62
2022/10/12 05:53:36;;;;;;;;;;;;;;;;;;10417818;28;19960;-62
2022/10/12 05:58:38;;;;;;;;;;;;;;;;;;10417546;28;19929;-61
2022/10/12 06:03:41;;;;;;;;;;;;;;;;;;10417067;28;19963;-60
2022/10/12 06:08:43;;;;;;;;;;;;;;;;;;10417491;28;19925;-60
2022/10/12 06:13:45;;;;;;;;;;;;;;;;;;10416213;28;20427;-60
2022/10/12 06:18:47;;;;;;;;;;;;;;;;;;10417583;28;19929;-60
2022/10/12 06:23:49;;;;;;;;;;;;;;;;;;10416792;28;19975;-60
2022/10/12 06:28:51;;;;;;;;;;;;;;;;;;10416110;28;19925;-60
2022/10/12 06:33:53;;;;;;;;;;;;;;;;;;10415478;28;20331;-60
2022/10/12 06:38:55;;;;;;;;;;;;;;;;;;10415775;28;19929;-60
2022/10/12 06:43:57;;;;;;;;;;;;;;;;;;10416231;28;19991;-61
2022/10/12 06:48:59;;;;;;;;;;;;;;;;;;10413869;28;19925;-60
2022/10/12 06:54:01;;;;;;;;;;;;;;;;;;10414265;28;19925;-61
2022/10/12 06:59:03;;;;;;;;;;;;;;;;;;10413832;28;20327;-61
2022/10/12 07:04:05;;;;;;;;;;;;;;;;;;10416273;28;19929;-61
2022/10/12 07:09:07;;;;;;;;;;;;;;;;;;10415590;28;20380;-61
2022/10/12 07:14:09;;;;;;;;;;;;;;;;;;10414753;28;20433;-65
2022/10/12 07:19:12;;;;;;;;;;;;;;;;;;10414371;28;19971;-65
2022/10/12 07:24:14;;;;;;;;;;;;;;;;;;10415103;28;19937;-65
2022/10/12 07:29:16;;;;;;;;;;;;;;;;;;10415991;28;19929;-64
2022/10/12 07:34:18;;;;;;;;;;;;;;;;;;10414317;28;20331;-64
2022/10/12 07:39:21;;;;;;;;;;;;;;;;;;10414246;28;19929;-64
2022/10/12 07:44:23;;;;;;;;;;;;;;;;;;10414777;28;19979;-64
2022/10/12 07:49:25;;;;;;;;;;;;;;;;;;10414649;28;20488;-64
2022/10/12 07:54:27;;;;;;;;;;;;;;;;;;10414391;28;19925;-64
2022/10/12 07:59:30;;;;;;;;;;;;;;;;;;10414634;28;20443;-64
2022/10/12 08:04:32;;;;;;;;;;;;;;;;;;10415202;28;19975;-64
2022/10/12 08:09:35;;;;;;;;;;;;;;;;;;10418324;28;19979;-64
2022/10/12 08:14:37;;;;;;;;;;;;;;;;;;10421313;28;19971;-64
2022/10/12 08:19:39;;;;;;;;;;;;;;;;;;10422397;28;19925;-64
2022/10/12 08:24:41;;;;;;;;;;;;;;;;;;10421697;28;19925;-64
2022/10/12 08:29:43;;;;;;;;;;;;;;;;;;10421211;28;19971;-64
2022/10/12 08:34:45;;;;;;;;;;;;;;;;;;10419722;28;19936;-64
2022/10/12 08:39:47;;;;;;;;;;;;;;;;;;10418596;28;20380;-64
2022/10/12 08:44:49;;;;;;;;;;;;;;;;;;10421376;28;19925;-64
2022/10/12 08:49:51;;;;;;;;;;;;;;;;;;10420326;28;20430;-64
2022/10/12 08:54:53;;;;;;;;;;;;;;;;;;10421030;28;19976;-65
2022/10/12 08:59:55;;;;;;;;;;;;;;;;;;10420233;28;20402;-64
2022/10/12 09:04:57;;;;;;;;;;;;;;;;;;10420692;28;19929;-64
2022/10/12 09:09:59;;;;;;;;;;;;;;;;;;10420490;28;19925;-64
2022/10/12 09:15:01;;;;;;;;;;;;;;;;;;10420271;28;19925;-64
2022/10/12 09:20:03;;;;;;;;;;;;;;;;;;10419377;28;19925;-64
2022/10/12 09:25:05;;;;;;;;;;;;;;;;;;10419754;28;19975;-64
2022/10/12 09:30:08;;;;;;;;;;;;;;;;;;10419789;28;19925;-64
2022/10/12 09:35:10;;;;;;;;;;;;;;;;;;10417951;28;20315;-64
2022/10/12 09:40:13;;;;;;;;;;;;;;;;;;10418395;28;19933;-65
2022/10/12 09:45:15;;;;;;;;;;;;;;;;;;10401635;28;19939;-64
2022/10/12 09:50:17;;;;;;;;;;;;;;;;;;10418038;28;20372;-64
2022/10/12 09:55:20;;;;;;;;;;;;;;;;;;10418507;28;19929;-65
2022/10/12 10:00:22;;;;;;;;;;;;;;;;;;10427815;22;20364;-64
2022/10/12 10:05:24;;;;;;;;;;;;;;;;;;10500600;28;19924;-65
2022/10/12 10:10:26;;;;;;;;;;;;;;;;;;10500080;28;19982;-65
2022/10/12 10:15:31;;;;;;;;;;;;;;;;;;10500391;28;19924;-65
2022/10/12 10:20:33;;;;;;;;;;;;;;;;;;10498484;28;19925;-66
2022/10/12 10:25:35;;;;;;;;;;;;;;;;;;10493735;28;19924;-65
2022/10/12 10:30:37;;;;;;;;;;;;;;;;;;10499418;28;19954;-65
2022/10/12 10:35:42;;;;;;;;;;;;;;;;;;10499732;28;19924;-65
2022/10/12 10:40:48;;;;;;;;;;;;;;;;;;10496667;28;19948;-65
2022/10/12 10:45:50;;;;;;;;;;;;;;;;;;10497791;28;19932;-65
2022/10/12 10:50:53;;;;;;;;;;;;;;;;;;10496579;28;19928;-65
2022/10/12 10:55:55;;;;;;;;;;;;;;;;;;10498496;28;20433;-66
2022/10/12 11:00:57;;;;;;;;;;;;;;;;;;10498293;28;19928;-65
2022/10/12 11:05:59;;;;;;;;;;;;;;;;;;10499024;28;19924;-65
2022/10/12 11:11:01;;;;;;;;;;;;;;;;;;10498774;28;19924;-66
2022/10/12 11:16:03;;;;;;;;;;;;;;;;;;10498051;28;19925;-65
2022/10/12 11:21:05;;;;;;;;;;;;;;;;;;10498696;28;19924;-65
2022/10/12 11:26:07;;;;;;;;;;;;;;;;;;10498788;28;19982;-65
2022/10/12 11:31:09;;;;;;;;;;;;;;;;;;10498430;28;19939;-68
2022/10/12 11:36:11;;;;;;;;;;;;;;;;;;10497691;28;20406;-67
2022/10/12 11:41:13;;;;;;;;;;;;;;;;;;10498335;28;19924;-67
2022/10/12 11:46:35;;;;;;;;;;;;;;;;;;10505395;28;19928;-67
2022/10/12 11:51:37;;;;;;;;;;;;;;;;;;10505944;28;19928;-67
2022/10/12 11:56:39;;;;;;;;;;;;;;;;;;10506010;28;19974;-72
2022/10/12 12:01:42;;;;;;;;;;;;;;;;;;10505332;28;19924;-73
2022/10/12 12:06:44;;;;;;;;;;;;;;;;;;10505677;28;19924;-75
2022/10/12 12:11:46;;;;;;;;;;;;;;;;;;10505454;28;19928;-74
2022/10/12 12:16:48;;;;;;;;;;;;;;;;;;10504606;28;19932;-72
2022/10/12 12:21:50;;;;;;;;;;;;;;;;;;10505122;28;19924;-73
2022/10/12 12:26:52;;;;;;;;;;;;;;;;;;10504847;28;19970;-73
2022/10/12 12:31:55;;;;;;;;;;;;;;;;;;10504665;28;19924;-72
2022/10/12 12:36:57;;;;;;;;;;;;;;;;;;10503743;28;20433;-72
2022/10/12 12:41:59;;;;;;;;;;;;;;;;;;10486755;28;19924;-73
2022/10/12 12:47:03;;;;;;;;;;;;;;;;;;10504084;28;19924;-72
2022/10/12 12:52:26;;;;;;;;;;;;;;;;;;10504325;28;20003;-69
2022/10/12 12:57:28;;;;;;;;;;;;;;;;;;10502497;28;19924;-75
2022/10/12 13:02:30;;;;;;;;;;;;;;;;;;10503118;28;19978;-75
2022/10/12 13:07:33;;;;;;;;;;;;;;;;;;10485597;28;19924;-76
2022/10/12 13:12:35;;;;;;;;;;;;;;;;;;10503149;28;19925;-70
2022/10/12 13:17:37;;;;;;;;;;;;;;;;;;10502823;28;19924;-70
2022/10/12 13:22:39;;;;;;;;;;;;;;;;;;10502723;28;19924;-71
2022/10/12 13:27:41;;;;;;;;;;;;;;;;;;10502569;28;19970;-70
2022/10/12 13:32:43;;;;;;;;;;;;;;;;;;10502322;28;19950;-70
2022/10/12 13:37:45;;;;;;;;;;;;;;;;;;10501368;28;19924;-70
2022/10/12 13:42:47;;;;;;;;;;;;;;;;;;10501946;28;19981;-70
2022/10/12 13:47:49;;;;;;;;;;;;;;;;;;10501053;28;19981;-70
2022/10/12 13:52:51;;;;;;;;;;;;;;;;;;10500886;28;19928;-70
2022/10/12 13:57:53;;;;;;;;;;;;;;;;;;10501229;28;19924;-65
2022/10/12 14:02:55;;;;;;;;;;;;;;;;;;10500304;28;19924;-65
2022/10/12 14:07:58;;;;;;;;;;;;;;;;;;10500505;28;19978;-65
2022/10/12 14:13:00;;;;;;;;;;;;;;;;;;10500003;28;19924;-65
2022/10/12 14:18:03;;;;;;;;;;;;;;;;;;10500001;28;20326;-65
2022/10/12 14:23:05;;;;;;;;;;;;;;;;;;10500298;28;19970;-64
2022/10/12 14:28:08;;;;;;;;;;;;;;;;;;10500097;28;19982;-69
2022/10/12 14:33:10;;;;;;;;;;;;;;;;;;10499231;28;20341;-70
2022/10/12 14:38:12;;;;;;;;;;;;;;;;;;10499719;28;19928;-70
2022/10/12 14:43:14;;;;;;;;;;;;;;;;;;10499611;28;19928;-71
2022/10/12 14:48:16;;;;;;;;;;;;;;;;;;10498502;28;20272;-70
2022/10/12 14:53:19;;;;;;;;;;;;;;;;;;10498639;28;19947;-70
2022/10/12 14:58:21;;;;;;;;;;;;;;;;;;10498478;28;19924;-70
2022/10/12 15:03:23;;;;;;;;;;;;;;;;;;10495438;28;20279;-70
2022/10/12 15:08:25;;;;;;;;;;;;;;;;;;10497873;28;19981;-70
2022/10/12 15:13:27;;;;;;;;;;;;;;;;;;10496061;28;20379;-70
2022/10/12 15:18:29;;;;;;;;;;;;;;;;;;10495855;28;19966;-70
2022/10/12 15:23:32;;;;;;;;;;;;;;;;;;10457182;28;19920;-70
2022/10/12 15:28:34;;;;;;;;;;;;;;;;;;10457039;28;19921;-70
2022/10/12 15:33:36;;;;;;;;;;;;;;;;;;10486678;28;19920;-70
2022/10/12 15:38:38;;;;;;;;;;;;;;;;;;10497336;28;19924;-71
2022/10/12 15:43:40;;;;;;;;;;;;;;;;;;10498298;28;19920;-70
2022/10/12 15:48:43;;;;;;;;;;;;;;;;;;10497044;28;19921;-70
2022/10/12 15:53:45;;;;;;;;;;;;;;;;;;10498065;28;19920;-71
2022/10/12 15:58:47;;;;;;;;;;;;;;;;;;10495063;28;19950;-70
2022/10/12 16:03:49;;;;;;;;;;;;;;;;;;10497023;28;19966;-71
2022/10/12 16:08:51;;;;;;;;;;;;;;;;;;10497037;28;19921;-70
2022/10/12 16:13:53;;;;;;;;;;;;;;;;;;10497572;28;19924;-71
2022/10/12 16:18:57;;;;;;;;;;;;;;;;;;10497478;28;19978;-69
2022/10/12 16:23:59;;;;;;;;;;;;;;;;;;10497451;28;19920;-70
2022/10/12 16:29:01;;;;;;;;;;;;;;;;;;10499096;28;19920;-69
2022/10/12 16:34:03;;;;;;;;;;;;;;;;;;10501951;28;20375;-70
2022/10/12 16:39:05;;;;;;;;;;;;;;;;;;10502511;28;19966;-69
2022/10/12 16:44:08;;;;;;;;;;;;;;;;;;10502487;28;19978;-70
2022/10/12 16:49:10;;;;;;;;;;;;;;;;;;10502967;28;19920;-69
2022/10/12 16:54:12;;;;;;;;;;;;;;;;;;10503800;28;19974;-69
2022/10/12 16:59:14;;;;;;;;;;;;;;;;;;10484794;28;19956;-70
2022/10/12 17:04:16;;;;;;;;;;;;;;;;;;10461394;28;19920;-69
2022/10/12 17:09:18;;;;;;;;;;;;;;;;;;10443583;28;19924;-69
2022/10/12 17:14:20;;;;;;;;;;;;;;;;;;10494224;28;19920;-69
2022/10/12 17:19:22;;;;;;;;;;;;;;;;;;10502773;28;19966;-69
2022/10/12 17:24:25;;;;;;;;;;;;;;;;;;10502028;28;20329;-69
2022/10/12 17:29:27;;;;;;;;;;;;;;;;;;10499977;28;19928;-63
2022/10/12 17:34:29;;;;;;;;;;;;;;;;;;10497321;28;19928;-64
2022/10/12 17:39:31;;;;;;;;;;;;;;;;;;10498908;28;19946;-64
2022/10/12 17:44:33;;;;;;;;;;;;;;;;;;10499797;28;19966;-64
2022/10/12 17:49:35;;;;;;;;;;;;;;;;;;10501731;28;19924;-64
2022/10/12 17:54:38;;;;;;;;;;;;;;;;;;10500829;28;19970;-64
2022/10/12 17:59:40;;;;;;;;;;;;;;;;;;10498621;28;19924;-64
2022/10/12 18:04:42;;;;;;;;;;;;;;;;;;10499595;28;19920;-64
2022/10/12 18:09:45;;;;;;;;;;;;;;;;;;10497676;28;21456;-63
2022/10/12 18:14:48;;;;;;;;;;;;;;;;;;10498162;28;20310;-64
2022/10/12 18:19:50;;;;;;;;;;;;;;;;;;10500470;28;19978;-64
2022/10/12 18:24:52;;;;;;;;;;;;;;;;;;10500254;28;19924;-63
2022/10/12 18:29:55;;;;;;;;;;;;;;;;;;10495900;28;19925;-63
2022/10/12 18:34:57;;;;;;;;;;;;;;;;;;10531806;28;19929;-63
2022/10/12 18:39:59;;;;;;;;;;;;;;;;;;10497009;28;19924;-63
2022/10/12 18:45:01;;;;;;;;;;;;;;;;;;10499344;28;19928;-63
2022/10/12 18:50:03;;;;;;;;;;;;;;;;;;10497897;28;20367;-63
2022/10/12 18:55:05;;;;;;;;;;;;;;;;;;10498244;28;19925;-63
2022/10/12 19:00:07;;;;;;;;;;;;;;;;;;10496125;28;19928;-63
2022/10/12 19:05:09;;;;;;;;;;;;;;;;;;10498326;28;20360;-63
2022/10/12 19:10:11;;;;;;;;;;;;;;;;;;10499023;28;19974;-63
2022/10/12 19:15:13;;;;;;;;;;;;;;;;;;10497918;28;19925;-64
2022/10/12 19:20:16;;;;;;;;;;;;;;;;;;10497151;28;20276;-63
2022/10/12 19:25:18;;;;;;;;;;;;;;;;;;10498735;28;20042;-63
2022/10/12 19:30:20;;;;;;;;;;;;;;;;;;10498620;28;19924;-63
2022/10/12 19:35:23;;;;;;;;;;;;;;;;;;10497705;28;19925;-63
2022/10/12 19:40:25;;;;;;;;;;;;;;;;;;10495926;28;19925;-63
2022/10/12 19:45:27;;;;;;;;;;;;;;;;;;10497253;28;19928;-63
2022/10/12 19:50:29;;;;;;;;;;;;;;;;;;10498203;28;19925;-63
2022/10/12 19:55:32;;;;;;;;;;;;;;;;;;10497948;28;19939;-64
2022/10/12 20:00:34;;;;;;;;;;;;;;;;;;10494755;28;19924;-63
2022/10/12 20:05:37;;;;;;;;;;;;;;;;;;10500042;28;19970;-63
2022/10/12 20:10:39;;;;;;;;;;;;;;;;;;10504946;28;19924;-63
2022/10/12 20:15:41;;;;;;;;;;;;;;;;;;10505370;28;19974;-63
2022/10/12 20:20:43;;;;;;;;;;;;;;;;;;10503301;28;19971;-63
2022/10/12 20:25:45;;;;;;;;;;;;;;;;;;10505010;28;19946;-63
2022/10/12 20:30:47;;;;;;;;;;;;;;;;;;10503720;28;19924;-63
2022/10/12 20:35:49;;;;;;;;;;;;;;;;;;10486826;28;19978;-63
2022/10/12 20:40:51;;;;;;;;;;;;;;;;;;10499469;28;20375;-63
2022/10/12 20:45:53;;;;;;;;;;;;;;;;;;10504253;28;19955;-63
2022/10/12 20:50:55;;;;;;;;;;;;;;;;;;10500062;28;20417;-63
2022/10/12 20:55:57;;;;;;;;;;;;;;;;;;10462396;28;19924;-63
2022/10/12 21:00:59;;;;;;;;;;;;;;;;;;10495352;28;19924;-63
2022/10/12 21:06:01;;;;;;;;;;;;;;;;;;10502489;28;19939;-63
2022/10/12 21:11:03;;;;;;;;;;;;;;;;;;10500993;28;19928;-63
2022/10/12 21:16:05;;;;;;;;;;;;;;;;;;10497392;28;19971;-63
2022/10/12 21:21:10;;;;;;;;;;;;;;;;;;10498180;28;19932;-63
2022/10/12 21:26:12;;;;;;;;;;;;;;;;;;10500236;28;19928;-63
2022/10/12 21:31:14;;;;;;;;;;;;;;;;;;10502469;28;19970;-63
2022/10/12 21:36:16;;;;;;;;;;;;;;;;;;10500647;28;19925;-64
2022/10/12 21:41:18;;;;;;;;;;;;;;;;;;10501058;28;19974;-63
2022/10/12 21:46:20;;;;;;;;;;;;;;;;;;10501020;28;19970;-63
2022/10/12 21:51:22;;;;;;;;;;;;;;;;;;10501033;28;20337;-63
2022/10/12 21:56:24;;;;;;;;;;;;;;;;;;10500701;28;19977;-64
2022/10/12 22:01:26;;;;;;;;;;;;;;;;;;10499450;28;20367;-64
2022/10/12 22:06:28;;;;;;;;;;;;;;;;;;10500316;28;20329;-63
2022/10/12 22:11:30;;;;;;;;;;;;;;;;;;10500782;28;19982;-64
2022/10/12 22:16:32;;;;;;;;;;;;;;;;;;10507431;22;19924;-63
2022/10/12 22:21:35;;;;;;;;;;;;;;;;;;10481072;28;19924;-63
2022/10/12 22:26:37;;;;;;;;;;;;;;;;;;10500204;28;19978;-63
2022/10/12 22:31:39;;;;;;;;;;;;;;;;;;10500052;28;19932;-63
2022/10/12 22:36:42;;;;;;;;;;;;;;;;;;10498872;28;19974;-63
2022/10/12 22:41:45;;;;;;;;;;;;;;;;;;10498802;28;20027;-63
2022/10/12 22:46:47;;;;;;;;;;;;;;;;;;10498954;28;20364;-63
2022/10/12 22:51:49;;;;;;;;;;;;;;;;;;10497107;28;20144;-63
2022/10/12 22:56:51;;;;;;;;;;;;;;;;;;10499291;28;19924;-63
2022/10/12 23:01:53;;;;;;;;;;;;;;;;;;10497456;28;19983;-63
2022/10/12 23:06:56;;;;;;;;;;;;;;;;;;10499062;28;19951;-63
2022/10/12 23:11:58;;;;;;;;;;;;;;;;;;10498894;28;19924;-63
2022/10/12 23:17:00;;;;;;;;;;;;;;;;;;10496971;28;20375;-63
2022/10/12 23:22:02;;;;;;;;;;;;;;;;;;10497757;28;19996;-62
2022/10/12 23:27:04;;;;;;;;;;;;;;;;;;10498655;28;19924;-63
2022/10/12 23:32:06;;;;;;;;;;;;;;;;;;10498570;28;19928;-63
2022/10/12 23:37:08;;;;;;;;;;;;;;;;;;10495633;28;19946;-63
2022/10/12 23:42:10;;;;;;;;;;;;;;;;;;10504254;28;19928;-63
2022/10/12 23:47:12;;;;;;;;;;;;;;;;;;10506585;28;19932;-63
2022/10/12 23:52:14;;;;;;;;;;;;;;;;;;10505539;28;19924;-63
2022/10/12 23:57:16;;;;;;;;;;;;;;;;;;10503733;28;20427;-63
